sensor_id;sensor_type;location;lat;lon;timestamp;P1;durP1;ratioP1;P2;durP2;ratioP2
8252;SDS011;61313;48.396;10.008;2023-05-07T00:02:11;8.70;;;6.17;;
8252;SDS011;61313;48.396;10.008;2023-05-07T00:04:36;10.27;;;6.17;;
8252;SDS011;61313;48.396;10.008;2023-05-07T00:07:03;7.10;;;5.97;;
8252;SDS011;61313;48.396;10.008;2023-05-07T00:09:29;6.00;;;5.40;;
8252;SDS011;61313;48.396;10.008;2023-05-07T00:11:54;7.27;;;6.57;;
8252;SDS011;61313;48.396;10.008;2023-05-07T00:14:20;6.87;;;5.50;;
8252;SDS011;61313;48.396;10.008;2023-05-07T00:16:45;11.47;;;6.00;;
8252;SDS011;61313;48.396;10.008;2023-05-07T00:19:11;9.60;;;5.60;;
8252;SDS011;61313;48.396;10.008;2023-05-07T00:21:36;6.87;;;5.63;;
8252;SDS011;61313;48.396;10.008;2023-05-07T00:24:02;6.40;;;5.80;;
8252;SDS011;61313;48.396;10.008;2023-05-07T00:26:28;6.37;;;5.70;;
8252;SDS011;61313;48.396;10.008;2023-05-07T00:28:53;6.07;;;5.47;;
8252;SDS011;61313;48.396;10.008;2023-05-07T00:31:19;8.83;;;6.43;;
8252;SDS011;61313;48.396;10.008;2023-05-07T00:33:44;11.90;;;5.80;;
8252;SDS011;61313;48.396;10.008;2023-05-07T00:36:10;6.67;;;5.73;;
8252;SDS011;61313;48.396;10.008;2023-05-07T00:38:35;13.10;;;6.10;;
8252;SDS011;61313;48.396;10.008;2023-05-07T00:41:00;7.77;;;5.70;;
8252;SDS011;61313;48.396;10.008;2023-05-07T00:43:27;5.53;;;4.90;;
8252;SDS011;61313;48.396;10.008;2023-05-07T00:45:53;6.60;;;5.37;;
8252;SDS011;61313;48.396;10.008;2023-05-07T00:48:18;6.93;;;5.83;;
8252;SDS011;61313;48.396;10.008;2023-05-07T00:50:44;5.67;;;5.13;;
8252;SDS011;61313;48.396;10.008;2023-05-07T00:53:10;7.30;;;5.83;;
8252;SDS011;61313;48.396;10.008;2023-05-07T00:55:36;8.40;;;6.30;;
8252;SDS011;61313;48.396;10.008;2023-05-07T00:58:02;8.00;;;6.50;;
8252;SDS011;61313;48.396;10.008;2023-05-07T01:00:28;7.80;;;5.67;;
8252;SDS011;61313;48.396;10.008;2023-05-07T01:02:53;6.80;;;6.00;;
8252;SDS011;61313;48.396;10.008;2023-05-07T01:05:19;10.23;;;5.27;;
8252;SDS011;61313;48.396;10.008;2023-05-07T01:07:47;5.63;;;4.90;;
8252;SDS011;61313;48.396;10.008;2023-05-07T01:10:14;15.63;;;6.47;;
8252;SDS011;61313;48.396;10.008;2023-05-07T01:12:40;8.43;;;5.17;;
8252;SDS011;61313;48.396;10.008;2023-05-07T01:15:07;6.10;;;5.10;;
8252;SDS011;61313;48.396;10.008;2023-05-07T01:17:37;5.77;;;5.00;;
8252;SDS011;61313;48.396;10.008;2023-05-07T01:20:05;7.07;;;6.23;;
8252;SDS011;61313;48.396;10.008;2023-05-07T01:22:32;6.53;;;5.90;;
8252;SDS011;61313;48.396;10.008;2023-05-07T01:24:59;6.50;;;5.90;;
8252;SDS011;61313;48.396;10.008;2023-05-07T01:27:27;10.03;;;6.70;;
8252;SDS011;61313;48.396;10.008;2023-05-07T01:29:52;6.80;;;6.20;;
8252;SDS011;61313;48.396;10.008;2023-05-07T01:32:18;6.83;;;6.13;;
8252;SDS011;61313;48.396;10.008;2023-05-07T01:34:52;17.37;;;6.67;;
8252;SDS011;61313;48.396;10.008;2023-05-07T01:37:19;9.80;;;6.67;;
8252;SDS011;61313;48.396;10.008;2023-05-07T01:39:45;7.03;;;6.33;;
8252;SDS011;61313;48.396;10.008;2023-05-07T01:42:13;12.00;;;6.33;;
8252;SDS011;61313;48.396;10.008;2023-05-07T01:44:38;8.53;;;5.73;;
8252;SDS011;61313;48.396;10.008;2023-05-07T01:47:04;9.00;;;6.40;;
8252;SDS011;61313;48.396;10.008;2023-05-07T01:49:31;9.50;;;6.33;;
8252;SDS011;61313;48.396;10.008;2023-05-07T01:51:57;7.27;;;6.57;;
8252;SDS011;61313;48.396;10.008;2023-05-07T01:54:26;10.47;;;6.53;;
8252;SDS011;61313;48.396;10.008;2023-05-07T01:56:58;7.90;;;6.83;;
8252;SDS011;61313;48.396;10.008;2023-05-07T01:59:23;8.73;;;5.90;;
8252;SDS011;61313;48.396;10.008;2023-05-07T02:01:49;7.63;;;6.23;;
8252;SDS011;61313;48.396;10.008;2023-05-07T02:04:14;9.20;;;6.57;;
8252;SDS011;61313;48.396;10.008;2023-05-07T02:06:39;6.80;;;6.10;;
8252;SDS011;61313;48.396;10.008;2023-05-07T02:09:05;11.30;;;6.37;;
8252;SDS011;61313;48.396;10.008;2023-05-07T02:11:30;7.13;;;6.17;;
8252;SDS011;61313;48.396;10.008;2023-05-07T02:13:56;8.80;;;6.53;;
8252;SDS011;61313;48.396;10.008;2023-05-07T02:16:21;17.60;;;7.07;;
8252;SDS011;61313;48.396;10.008;2023-05-07T02:18:48;14.63;;;7.07;;
8252;SDS011;61313;48.396;10.008;2023-05-07T02:21:13;9.30;;;6.70;;
8252;SDS011;61313;48.396;10.008;2023-05-07T02:23:39;6.33;;;5.73;;
8252;SDS011;61313;48.396;10.008;2023-05-07T02:26:04;6.63;;;6.03;;
8252;SDS011;61313;48.396;10.008;2023-05-07T02:28:30;8.23;;;5.83;;
8252;SDS011;61313;48.396;10.008;2023-05-07T02:30:55;6.10;;;5.50;;
8252;SDS011;61313;48.396;10.008;2023-05-07T02:33:23;7.57;;;6.17;;
8252;SDS011;61313;48.396;10.008;2023-05-07T02:35:48;8.83;;;7.03;;
8252;SDS011;61313;48.396;10.008;2023-05-07T02:38:14;8.33;;;5.73;;
8252;SDS011;61313;48.396;10.008;2023-05-07T02:40:39;12.73;;;6.73;;
8252;SDS011;61313;48.396;10.008;2023-05-07T02:43:05;15.77;;;6.30;;
8252;SDS011;61313;48.396;10.008;2023-05-07T02:45:31;7.93;;;5.77;;
8252;SDS011;61313;48.396;10.008;2023-05-07T02:47:57;8.67;;;5.93;;
8252;SDS011;61313;48.396;10.008;2023-05-07T02:50:23;6.37;;;5.50;;
8252;SDS011;61313;48.396;10.008;2023-05-07T02:52:48;6.47;;;5.87;;
8252;SDS011;61313;48.396;10.008;2023-05-07T02:55:14;11.03;;;5.63;;
8252;SDS011;61313;48.396;10.008;2023-05-07T02:57:39;7.43;;;5.97;;
8252;SDS011;61313;48.396;10.008;2023-05-07T03:00:15;7.60;;;5.40;;
8252;SDS011;61313;48.396;10.008;2023-05-07T03:02:42;7.53;;;5.83;;
8252;SDS011;61313;48.396;10.008;2023-05-07T03:05:08;20.80;;;6.80;;
8252;SDS011;61313;48.396;10.008;2023-05-07T03:07:35;9.43;;;5.93;;
8252;SDS011;61313;48.396;10.008;2023-05-07T03:10:00;12.63;;;6.70;;
8252;SDS011;61313;48.396;10.008;2023-05-07T03:12:26;16.80;;;6.37;;
8252;SDS011;61313;48.396;10.008;2023-05-07T03:14:51;7.70;;;6.03;;
8252;SDS011;61313;48.396;10.008;2023-05-07T03:17:17;9.03;;;6.40;;
8252;SDS011;61313;48.396;10.008;2023-05-07T03:19:42;8.87;;;6.30;;
8252;SDS011;61313;48.396;10.008;2023-05-07T03:22:08;12.20;;;6.60;;
8252;SDS011;61313;48.396;10.008;2023-05-07T03:24:33;10.40;;;6.40;;
8252;SDS011;61313;48.396;10.008;2023-05-07T03:26:59;10.40;;;5.77;;
8252;SDS011;61313;48.396;10.008;2023-05-07T03:29:26;8.00;;;5.50;;
8252;SDS011;61313;48.396;10.008;2023-05-07T03:31:51;11.43;;;6.77;;
8252;SDS011;61313;48.396;10.008;2023-05-07T03:34:17;11.10;;;6.00;;
8252;SDS011;61313;48.396;10.008;2023-05-07T03:36:47;8.90;;;6.43;;
8252;SDS011;61313;48.396;10.008;2023-05-07T03:39:15;9.03;;;5.90;;
8252;SDS011;61313;48.396;10.008;2023-05-07T03:41:40;7.30;;;5.63;;
8252;SDS011;61313;48.396;10.008;2023-05-07T03:44:06;9.77;;;5.50;;
8252;SDS011;61313;48.396;10.008;2023-05-07T03:46:31;18.20;;;7.97;;
8252;SDS011;61313;48.396;10.008;2023-05-07T03:48:57;9.77;;;6.70;;
8252;SDS011;61313;48.396;10.008;2023-05-07T03:51:23;9.90;;;6.60;;
8252;SDS011;61313;48.396;10.008;2023-05-07T03:53:49;9.37;;;6.47;;
8252;SDS011;61313;48.396;10.008;2023-05-07T03:56:17;10.67;;;6.03;;
8252;SDS011;61313;48.396;10.008;2023-05-07T03:58:43;14.27;;;6.30;;
8252;SDS011;61313;48.396;10.008;2023-05-07T04:01:09;17.93;;;6.80;;
8252;SDS011;61313;48.396;10.008;2023-05-07T04:03:34;8.33;;;6.27;;
8252;SDS011;61313;48.396;10.008;2023-05-07T04:06:00;11.67;;;6.30;;
8252;SDS011;61313;48.396;10.008;2023-05-07T04:08:25;33.60;;;8.80;;
8252;SDS011;61313;48.396;10.008;2023-05-07T04:10:54;6.40;;;5.80;;
8252;SDS011;61313;48.396;10.008;2023-05-07T04:13:23;9.17;;;5.80;;
8252;SDS011;61313;48.396;10.008;2023-05-07T04:15:50;6.77;;;5.67;;
8252;SDS011;61313;48.396;10.008;2023-05-07T04:18:15;14.10;;;6.57;;
8252;SDS011;61313;48.396;10.008;2023-05-07T04:20:41;10.53;;;6.93;;
8252;SDS011;61313;48.396;10.008;2023-05-07T04:23:07;9.23;;;6.10;;
8252;SDS011;61313;48.396;10.008;2023-05-07T04:25:32;6.80;;;6.20;;
8252;SDS011;61313;48.396;10.008;2023-05-07T04:27:58;8.17;;;6.87;;
8252;SDS011;61313;48.396;10.008;2023-05-07T04:30:23;25.90;;;7.13;;
8252;SDS011;61313;48.396;10.008;2023-05-07T04:32:49;49.47;;;9.93;;
8252;SDS011;61313;48.396;10.008;2023-05-07T04:35:15;14.60;;;7.13;;
8252;SDS011;61313;48.396;10.008;2023-05-07T04:37:40;9.90;;;6.13;;
8252;SDS011;61313;48.396;10.008;2023-05-07T04:40:06;26.60;;;7.03;;
8252;SDS011;61313;48.396;10.008;2023-05-07T04:42:32;12.10;;;6.03;;
8252;SDS011;61313;48.396;10.008;2023-05-07T04:44:57;9.00;;;5.97;;
8252;SDS011;61313;48.396;10.008;2023-05-07T04:47:23;14.13;;;6.57;;
8252;SDS011;61313;48.396;10.008;2023-05-07T04:49:48;11.90;;;6.67;;
8252;SDS011;61313;48.396;10.008;2023-05-07T04:52:14;11.40;;;6.90;;
8252;SDS011;61313;48.396;10.008;2023-05-07T04:54:40;9.03;;;6.60;;
8252;SDS011;61313;48.396;10.008;2023-05-07T04:57:05;9.77;;;6.80;;
8252;SDS011;61313;48.396;10.008;2023-05-07T04:59:31;12.83;;;6.83;;
8252;SDS011;61313;48.396;10.008;2023-05-07T05:01:57;7.63;;;5.87;;
8252;SDS011;61313;48.396;10.008;2023-05-07T05:04:23;7.70;;;6.90;;
8252;SDS011;61313;48.396;10.008;2023-05-07T05:06:49;8.63;;;6.67;;
8252;SDS011;61313;48.396;10.008;2023-05-07T05:09:14;16.97;;;6.70;;
8252;SDS011;61313;48.396;10.008;2023-05-07T05:11:40;13.00;;;5.87;;
8252;SDS011;61313;48.396;10.008;2023-05-07T05:14:06;9.83;;;6.00;;
8252;SDS011;61313;48.396;10.008;2023-05-07T05:16:31;7.87;;;5.60;;
8252;SDS011;61313;48.396;10.008;2023-05-07T05:18:57;7.40;;;6.00;;
8252;SDS011;61313;48.396;10.008;2023-05-07T05:21:23;7.30;;;6.60;;
8252;SDS011;61313;48.396;10.008;2023-05-07T05:23:48;6.70;;;6.10;;
8252;SDS011;61313;48.396;10.008;2023-05-07T05:26:14;8.97;;;6.80;;
8252;SDS011;61313;48.396;10.008;2023-05-07T05:28:39;6.93;;;6.00;;
8252;SDS011;61313;48.396;10.008;2023-05-07T05:31:05;6.97;;;6.37;;
8252;SDS011;61313;48.396;10.008;2023-05-07T05:33:30;15.07;;;6.93;;
8252;SDS011;61313;48.396;10.008;2023-05-07T05:35:55;16.53;;;7.13;;
8252;SDS011;61313;48.396;10.008;2023-05-07T05:38:21;10.63;;;6.67;;
8252;SDS011;61313;48.396;10.008;2023-05-07T05:40:46;8.73;;;6.40;;
8252;SDS011;61313;48.396;10.008;2023-05-07T05:43:13;7.23;;;6.20;;
8252;SDS011;61313;48.396;10.008;2023-05-07T05:45:38;7.37;;;6.70;;
8252;SDS011;61313;48.396;10.008;2023-05-07T05:48:04;8.67;;;6.33;;
8252;SDS011;61313;48.396;10.008;2023-05-07T05:50:29;6.90;;;6.30;;
8252;SDS011;61313;48.396;10.008;2023-05-07T05:52:55;11.13;;;6.23;;
8252;SDS011;61313;48.396;10.008;2023-05-07T05:55:21;9.07;;;6.00;;
8252;SDS011;61313;48.396;10.008;2023-05-07T05:57:47;9.77;;;6.03;;
8252;SDS011;61313;48.396;10.008;2023-05-07T06:00:13;14.00;;;7.10;;
8252;SDS011;61313;48.396;10.008;2023-05-07T06:02:38;7.13;;;6.43;;
8252;SDS011;61313;48.396;10.008;2023-05-07T06:05:04;8.17;;;7.37;;
8252;SDS011;61313;48.396;10.008;2023-05-07T06:07:30;8.83;;;7.37;;
8252;SDS011;61313;48.396;10.008;2023-05-07T06:09:55;7.13;;;6.43;;
8252;SDS011;61313;48.396;10.008;2023-05-07T06:12:21;10.70;;;6.47;;
8252;SDS011;61313;48.396;10.008;2023-05-07T06:14:46;6.67;;;6.10;;
8252;SDS011;61313;48.396;10.008;2023-05-07T06:17:12;7.10;;;6.20;;
8252;SDS011;61313;48.396;10.008;2023-05-07T06:19:37;11.77;;;7.00;;
8252;SDS011;61313;48.396;10.008;2023-05-07T06:22:03;7.37;;;6.23;;
8252;SDS011;61313;48.396;10.008;2023-05-07T06:24:28;8.27;;;7.37;;
8252;SDS011;61313;48.396;10.008;2023-05-07T06:26:54;8.20;;;6.80;;
8252;SDS011;61313;48.396;10.008;2023-05-07T06:29:20;6.50;;;6.00;;
8252;SDS011;61313;48.396;10.008;2023-05-07T06:31:45;7.73;;;7.03;;
8252;SDS011;61313;48.396;10.008;2023-05-07T06:34:11;6.97;;;6.37;;
8252;SDS011;61313;48.396;10.008;2023-05-07T06:36:39;10.13;;;7.60;;
8252;SDS011;61313;48.396;10.008;2023-05-07T06:39:05;8.37;;;7.23;;
8252;SDS011;61313;48.396;10.008;2023-05-07T06:41:31;8.60;;;7.70;;
8252;SDS011;61313;48.396;10.008;2023-05-07T06:43:56;8.93;;;8.13;;
8252;SDS011;61313;48.396;10.008;2023-05-07T06:46:22;10.30;;;7.67;;
8252;SDS011;61313;48.396;10.008;2023-05-07T06:48:47;9.57;;;8.00;;
8252;SDS011;61313;48.396;10.008;2023-05-07T06:51:13;8.80;;;8.00;;
8252;SDS011;61313;48.396;10.008;2023-05-07T06:53:38;8.90;;;8.00;;
8252;SDS011;61313;48.396;10.008;2023-05-07T06:56:04;9.80;;;7.77;;
8252;SDS011;61313;48.396;10.008;2023-05-07T06:58:29;9.40;;;8.33;;
8252;SDS011;61313;48.396;10.008;2023-05-07T07:00:55;9.27;;;8.00;;
8252;SDS011;61313;48.396;10.008;2023-05-07T07:03:20;9.03;;;8.13;;
8252;SDS011;61313;48.396;10.008;2023-05-07T07:05:46;8.10;;;7.40;;
8252;SDS011;61313;48.396;10.008;2023-05-07T07:08:11;11.90;;;8.07;;
8252;SDS011;61313;48.396;10.008;2023-05-07T07:10:36;8.80;;;7.60;;
8252;SDS011;61313;48.396;10.008;2023-05-07T07:13:02;8.83;;;7.23;;
8252;SDS011;61313;48.396;10.008;2023-05-07T07:15:27;9.40;;;7.10;;
8252;SDS011;61313;48.396;10.008;2023-05-07T07:17:53;9.67;;;7.80;;
8252;SDS011;61313;48.396;10.008;2023-05-07T07:20:18;16.80;;;9.00;;
8252;SDS011;61313;48.396;10.008;2023-05-07T07:22:44;8.60;;;7.87;;
8252;SDS011;61313;48.396;10.008;2023-05-07T07:25:09;10.93;;;8.43;;
8252;SDS011;61313;48.396;10.008;2023-05-07T07:27:36;19.03;;;9.33;;
8252;SDS011;61313;48.396;10.008;2023-05-07T07:30:01;20.20;;;8.87;;
8252;SDS011;61313;48.396;10.008;2023-05-07T07:32:27;22.67;;;9.67;;
8252;SDS011;61313;48.396;10.008;2023-05-07T07:34:53;8.60;;;7.70;;
8252;SDS011;61313;48.396;10.008;2023-05-07T07:37:18;8.73;;;7.70;;
8252;SDS011;61313;48.396;10.008;2023-05-07T07:39:43;8.53;;;7.73;;
8252;SDS011;61313;48.396;10.008;2023-05-07T07:42:09;9.50;;;7.60;;
8252;SDS011;61313;48.396;10.008;2023-05-07T07:44:34;27.30;;;9.60;;
8252;SDS011;61313;48.396;10.008;2023-05-07T07:47:00;8.00;;;7.20;;
8252;SDS011;61313;48.396;10.008;2023-05-07T07:49:26;8.93;;;8.13;;
8252;SDS011;61313;48.396;10.008;2023-05-07T07:51:52;10.47;;;7.87;;
8252;SDS011;61313;48.396;10.008;2023-05-07T07:54:17;8.47;;;7.77;;
8252;SDS011;61313;48.396;10.008;2023-05-07T07:56:42;8.93;;;8.13;;
8252;SDS011;61313;48.396;10.008;2023-05-07T07:59:08;9.20;;;8.40;;
8252;SDS011;61313;48.396;10.008;2023-05-07T08:01:33;10.00;;;8.03;;
8252;SDS011;61313;48.396;10.008;2023-05-07T08:03:59;8.80;;;7.90;;
8252;SDS011;61313;48.396;10.008;2023-05-07T08:06:24;9.00;;;7.80;;
8252;SDS011;61313;48.396;10.008;2023-05-07T08:08:53;12.80;;;7.70;;
8252;SDS011;61313;48.396;10.008;2023-05-07T08:11:18;15.00;;;9.37;;
8252;SDS011;61313;48.396;10.008;2023-05-07T08:13:45;15.57;;;8.57;;
8252;SDS011;61313;48.396;10.008;2023-05-07T08:16:10;11.20;;;7.40;;
8252;SDS011;61313;48.396;10.008;2023-05-07T08:18:36;9.80;;;8.23;;
8252;SDS011;61313;48.396;10.008;2023-05-07T08:21:03;9.13;;;8.23;;
8252;SDS011;61313;48.396;10.008;2023-05-07T08:23:50;11.27;;;8.93;;
8252;SDS011;61313;48.396;10.008;2023-05-07T08:26:29;7.83;;;7.03;;
8252;SDS011;61313;48.396;10.008;2023-05-07T08:29:04;9.13;;;8.33;;
8252;SDS011;61313;48.396;10.008;2023-05-07T08:31:52;12.10;;;8.20;;
8252;SDS011;61313;48.396;10.008;2023-05-07T08:34:46;10.23;;;8.50;;
8252;SDS011;61313;48.396;10.008;2023-05-07T08:37:18;10.07;;;9.00;;
8252;SDS011;61313;48.396;10.008;2023-05-07T08:39:57;8.60;;;7.70;;
8252;SDS011;61313;48.396;10.008;2023-05-07T08:42:26;11.10;;;8.90;;
8252;SDS011;61313;48.396;10.008;2023-05-07T08:44:56;9.50;;;8.60;;
8252;SDS011;61313;48.396;10.008;2023-05-07T08:47:34;9.23;;;8.33;;
8252;SDS011;61313;48.396;10.008;2023-05-07T08:50:17;10.70;;;9.10;;
8252;SDS011;61313;48.396;10.008;2023-05-07T08:53:40;10.30;;;9.27;;
8252;SDS011;61313;48.396;10.008;2023-05-07T09:01:59;13.13;;;8.77;;
8252;SDS011;61313;48.396;10.008;2023-05-07T09:04:25;10.80;;;9.60;;
8252;SDS011;61313;48.396;10.008;2023-05-07T09:06:50;9.00;;;8.10;;
8252;SDS011;61313;48.396;10.008;2023-05-07T09:09:17;15.40;;;8.33;;
8252;SDS011;61313;48.396;10.008;2023-05-07T09:11:45;11.00;;;9.30;;
8252;SDS011;61313;48.396;10.008;2023-05-07T09:14:10;9.70;;;8.83;;
8252;SDS011;61313;48.396;10.008;2023-05-07T09:16:36;9.77;;;8.80;;
8252;SDS011;61313;48.396;10.008;2023-05-07T09:19:03;19.03;;;8.00;;
8252;SDS011;61313;48.396;10.008;2023-05-07T09:21:29;12.00;;;9.67;;
8252;SDS011;61313;48.396;10.008;2023-05-07T09:23:54;12.40;;;8.17;;
8252;SDS011;61313;48.396;10.008;2023-05-07T09:26:21;9.60;;;8.33;;
8252;SDS011;61313;48.396;10.008;2023-05-07T09:28:47;11.30;;;8.70;;
8252;SDS011;61313;48.396;10.008;2023-05-07T09:31:13;23.80;;;10.90;;
8252;SDS011;61313;48.396;10.008;2023-05-07T09:33:39;9.30;;;8.50;;
8252;SDS011;61313;48.396;10.008;2023-05-07T09:36:05;15.83;;;8.70;;
8252;SDS011;61313;48.396;10.008;2023-05-07T09:38:32;8.03;;;7.33;;
8252;SDS011;61313;48.396;10.008;2023-05-07T09:41:02;7.13;;;6.40;;
8252;SDS011;61313;48.396;10.008;2023-05-07T09:43:31;7.93;;;7.17;;
8252;SDS011;61313;48.396;10.008;2023-05-07T09:45:58;10.33;;;8.40;;
8252;SDS011;61313;48.396;10.008;2023-05-07T09:48:25;9.67;;;8.67;;
8252;SDS011;61313;48.396;10.008;2023-05-07T09:50:51;10.27;;;8.20;;
8252;SDS011;61313;48.396;10.008;2023-05-07T09:53:23;9.20;;;8.30;;
8252;SDS011;61313;48.396;10.008;2023-05-07T09:55:49;11.00;;;9.90;;
8252;SDS011;61313;48.396;10.008;2023-05-07T09:58:16;12.93;;;9.33;;
8252;SDS011;61313;48.396;10.008;2023-05-07T10:00:44;8.83;;;7.93;;
8252;SDS011;61313;48.396;10.008;2023-05-07T10:03:10;8.13;;;7.43;;
8252;SDS011;61313;48.396;10.008;2023-05-07T10:05:37;6.87;;;6.27;;
8252;SDS011;61313;48.396;10.008;2023-05-07T10:08:04;7.30;;;6.60;;
8252;SDS011;61313;48.396;10.008;2023-05-07T10:10:30;11.03;;;7.50;;
8252;SDS011;61313;48.396;10.008;2023-05-07T10:12:57;11.57;;;8.80;;
8252;SDS011;61313;48.396;10.008;2023-05-07T10:15:24;10.10;;;9.20;;
8252;SDS011;61313;48.396;10.008;2023-05-07T10:17:50;8.00;;;7.20;;
8252;SDS011;61313;48.396;10.008;2023-05-07T10:20:18;18.53;;;7.90;;
8252;SDS011;61313;48.396;10.008;2023-05-07T10:22:46;9.93;;;8.00;;
8252;SDS011;61313;48.396;10.008;2023-05-07T10:25:17;8.53;;;7.73;;
8252;SDS011;61313;48.396;10.008;2023-05-07T10:27:50;8.13;;;7.37;;
8252;SDS011;61313;48.396;10.008;2023-05-07T10:30:27;9.07;;;8.27;;
8252;SDS011;61313;48.396;10.008;2023-05-07T10:32:59;9.90;;;7.30;;
8252;SDS011;61313;48.396;10.008;2023-05-07T10:35:31;7.83;;;6.30;;
8252;SDS011;61313;48.396;10.008;2023-05-07T10:38:03;7.83;;;6.50;;
8252;SDS011;61313;48.396;10.008;2023-05-07T10:40:30;7.20;;;6.60;;
8252;SDS011;61313;48.396;10.008;2023-05-07T10:42:57;10.70;;;7.00;;
8252;SDS011;61313;48.396;10.008;2023-05-07T10:45:25;7.77;;;6.53;;
8252;SDS011;61313;48.396;10.008;2023-05-07T10:48:05;6.63;;;6.03;;
8252;SDS011;61313;48.396;10.008;2023-05-07T10:50:38;7.90;;;6.00;;
8252;SDS011;61313;48.396;10.008;2023-05-07T10:55:43;6.93;;;6.23;;
8252;SDS011;61313;48.396;10.008;2023-05-07T11:00:50;7.60;;;5.40;;
8252;SDS011;61313;48.396;10.008;2023-05-07T11:03:16;10.47;;;7.70;;
8252;SDS011;61313;48.396;10.008;2023-05-07T11:05:42;13.93;;;8.30;;
8252;SDS011;61313;48.396;10.008;2023-05-07T11:08:07;8.33;;;7.53;;
8252;SDS011;61313;48.396;10.008;2023-05-07T11:16:17;6.90;;;6.40;;
8252;SDS011;61313;48.396;10.008;2023-05-07T11:18:47;7.77;;;6.97;;
8252;SDS011;61313;48.396;10.008;2023-05-07T11:24:03;7.37;;;6.70;;
8252;SDS011;61313;48.396;10.008;2023-05-07T11:26:31;8.10;;;6.20;;
8252;SDS011;61313;48.396;10.008;2023-05-07T11:29:18;7.20;;;6.50;;
8252;SDS011;61313;48.396;10.008;2023-05-07T11:31:49;8.60;;;7.80;;
8252;SDS011;61313;48.396;10.008;2023-05-07T11:34:19;8.73;;;7.57;;
8252;SDS011;61313;48.396;10.008;2023-05-07T11:36:46;7.57;;;6.77;;
8252;SDS011;61313;48.396;10.008;2023-05-07T11:41:55;7.97;;;7.13;;
8252;SDS011;61313;48.396;10.008;2023-05-07T11:44:20;8.13;;;7.33;;
8252;SDS011;61313;48.396;10.008;2023-05-07T11:46:46;7.43;;;5.90;;
8252;SDS011;61313;48.396;10.008;2023-05-07T11:49:11;12.53;;;6.30;;
8252;SDS011;61313;48.396;10.008;2023-05-07T11:51:37;9.20;;;7.00;;
8252;SDS011;61313;48.396;10.008;2023-05-07T11:54:04;10.50;;;5.90;;
8252;SDS011;61313;48.396;10.008;2023-05-07T11:56:34;6.23;;;5.60;;
8252;SDS011;61313;48.396;10.008;2023-05-07T11:59:00;6.63;;;6.03;;
8252;SDS011;61313;48.396;10.008;2023-05-07T12:01:26;10.83;;;6.00;;
8252;SDS011;61313;48.396;10.008;2023-05-07T12:03:51;7.17;;;6.57;;
8252;SDS011;61313;48.396;10.008;2023-05-07T12:06:17;6.80;;;6.10;;
8252;SDS011;61313;48.396;10.008;2023-05-07T12:08:43;6.70;;;5.70;;
8252;SDS011;61313;48.396;10.008;2023-05-07T12:11:12;8.93;;;6.20;;
8252;SDS011;61313;48.396;10.008;2023-05-07T12:13:41;7.80;;;5.70;;
8252;SDS011;61313;48.396;10.008;2023-05-07T12:16:07;8.70;;;5.63;;
8252;SDS011;61313;48.396;10.008;2023-05-07T12:18:33;7.60;;;5.57;;
8252;SDS011;61313;48.396;10.008;2023-05-07T12:21:12;6.03;;;5.53;;
8252;SDS011;61313;48.396;10.008;2023-05-07T12:23:38;5.30;;;4.80;;
8252;SDS011;61313;48.396;10.008;2023-05-07T12:26:03;5.80;;;5.27;;
8252;SDS011;61313;48.396;10.008;2023-05-07T12:28:29;11.67;;;5.30;;
8252;SDS011;61313;48.396;10.008;2023-05-07T12:30:56;5.03;;;4.53;;
8252;SDS011;61313;48.396;10.008;2023-05-07T12:33:25;14.83;;;5.53;;
8252;SDS011;61313;48.396;10.008;2023-05-07T12:35:53;10.20;;;4.87;;
8252;SDS011;61313;48.396;10.008;2023-05-07T12:38:20;12.13;;;5.07;;
8252;SDS011;61313;48.396;10.008;2023-05-07T12:40:47;9.97;;;5.10;;
8252;SDS011;61313;48.396;10.008;2023-05-07T12:43:28;5.13;;;4.63;;
8252;SDS011;61313;48.396;10.008;2023-05-07T12:45:54;10.93;;;5.70;;
8252;SDS011;61313;48.396;10.008;2023-05-07T12:48:21;5.50;;;4.20;;
8252;SDS011;61313;48.396;10.008;2023-05-07T12:50:54;6.13;;;4.47;;
8252;SDS011;61313;48.396;10.008;2023-05-07T12:53:20;5.90;;;4.57;;
8252;SDS011;61313;48.396;10.008;2023-05-07T12:55:48;8.50;;;4.33;;
8252;SDS011;61313;48.396;10.008;2023-05-07T12:58:29;4.47;;;3.70;;
8252;SDS011;61313;48.396;10.008;2023-05-07T13:00:56;4.20;;;3.90;;
8252;SDS011;61313;48.396;10.008;2023-05-07T13:03:32;7.07;;;4.37;;
8252;SDS011;61313;48.396;10.008;2023-05-07T13:06:00;6.40;;;3.83;;
8252;SDS011;61313;48.396;10.008;2023-05-07T13:08:28;5.20;;;4.10;;
8252;SDS011;61313;48.396;10.008;2023-05-07T13:11:15;4.97;;;4.00;;
8252;SDS011;61313;48.396;10.008;2023-05-07T13:13:40;10.33;;;4.10;;
8252;SDS011;61313;48.396;10.008;2023-05-07T13:16:07;5.63;;;3.40;;
8252;SDS011;61313;48.396;10.008;2023-05-07T13:18:34;9.00;;;4.00;;
8252;SDS011;61313;48.396;10.008;2023-05-07T13:21:00;9.20;;;3.93;;
8252;SDS011;61313;48.396;10.008;2023-05-07T13:23:26;5.13;;;3.90;;
8252;SDS011;61313;48.396;10.008;2023-05-07T13:25:53;4.77;;;3.30;;
8252;SDS011;61313;48.396;10.008;2023-05-07T13:28:19;5.17;;;4.00;;
8252;SDS011;61313;48.396;10.008;2023-05-07T13:30:45;4.83;;;3.50;;
8252;SDS011;61313;48.396;10.008;2023-05-07T13:33:11;3.27;;;2.90;;
8252;SDS011;61313;48.396;10.008;2023-05-07T13:35:37;5.70;;;3.40;;
8252;SDS011;61313;48.396;10.008;2023-05-07T13:38:03;7.93;;;3.50;;
8252;SDS011;61313;48.396;10.008;2023-05-07T13:40:29;11.40;;;4.57;;
8252;SDS011;61313;48.396;10.008;2023-05-07T13:42:56;4.73;;;3.13;;
8252;SDS011;61313;48.396;10.008;2023-05-07T13:45:23;4.50;;;3.43;;
8252;SDS011;61313;48.396;10.008;2023-05-07T13:47:51;5.17;;;3.73;;
8252;SDS011;61313;48.396;10.008;2023-05-07T13:50:17;6.07;;;3.13;;
8252;SDS011;61313;48.396;10.008;2023-05-07T13:52:43;5.47;;;3.90;;
8252;SDS011;61313;48.396;10.008;2023-05-07T13:55:19;6.03;;;3.70;;
8252;SDS011;61313;48.396;10.008;2023-05-07T13:57:46;4.33;;;3.50;;
8252;SDS011;61313;48.396;10.008;2023-05-07T14:00:13;9.97;;;3.63;;
8252;SDS011;61313;48.396;10.008;2023-05-07T14:02:39;9.67;;;3.80;;
8252;SDS011;61313;48.396;10.008;2023-05-07T14:05:05;5.90;;;4.27;;
8252;SDS011;61313;48.396;10.008;2023-05-07T14:07:31;6.70;;;3.80;;
8252;SDS011;61313;48.396;10.008;2023-05-07T14:09:57;4.20;;;3.37;;
8252;SDS011;61313;48.396;10.008;2023-05-07T14:12:23;6.07;;;3.03;;
8252;SDS011;61313;48.396;10.008;2023-05-07T14:14:48;4.40;;;3.00;;
8252;SDS011;61313;48.396;10.008;2023-05-07T14:17:15;6.27;;;3.10;;
8252;SDS011;61313;48.396;10.008;2023-05-07T14:19:41;5.43;;;3.03;;
8252;SDS011;61313;48.396;10.008;2023-05-07T14:22:07;5.27;;;3.00;;
8252;SDS011;61313;48.396;10.008;2023-05-07T14:24:32;5.37;;;3.17;;
8252;SDS011;61313;48.396;10.008;2023-05-07T14:26:58;3.87;;;3.23;;
8252;SDS011;61313;48.396;10.008;2023-05-07T14:29:23;5.10;;;3.10;;
8252;SDS011;61313;48.396;10.008;2023-05-07T14:31:50;8.30;;;4.60;;
8252;SDS011;61313;48.396;10.008;2023-05-07T14:34:15;19.80;;;4.40;;
8252;SDS011;61313;48.396;10.008;2023-05-07T14:36:41;5.40;;;3.63;;
8252;SDS011;61313;48.396;10.008;2023-05-07T14:39:07;4.20;;;3.33;;
8252;SDS011;61313;48.396;10.008;2023-05-07T14:41:34;7.63;;;3.97;;
8252;SDS011;61313;48.396;10.008;2023-05-07T14:43:59;14.50;;;3.73;;
8252;SDS011;61313;48.396;10.008;2023-05-07T14:46:25;4.53;;;3.13;;
8252;SDS011;61313;48.396;10.008;2023-05-07T14:48:50;5.37;;;3.30;;
8252;SDS011;61313;48.396;10.008;2023-05-07T14:51:16;4.30;;;3.23;;
8252;SDS011;61313;48.396;10.008;2023-05-07T14:53:41;5.53;;;3.30;;
8252;SDS011;61313;48.396;10.008;2023-05-07T14:56:07;4.67;;;3.37;;
8252;SDS011;61313;48.396;10.008;2023-05-07T14:58:33;6.80;;;4.30;;
8252;SDS011;61313;48.396;10.008;2023-05-07T15:00:59;8.33;;;3.90;;
8252;SDS011;61313;48.396;10.008;2023-05-07T15:03:25;4.90;;;3.37;;
8252;SDS011;61313;48.396;10.008;2023-05-07T15:05:51;14.50;;;4.30;;